createdAt,value
2022-10-03T00:02:09.652Z,0.30
2022-10-03T00:05:05.045Z,0.23
2022-10-03T00:07:52.826Z,0.30
2022-10-03T00:10:25.664Z,0.20
2022-10-03T00:13:44.804Z,0.20
2022-10-03T00:16:20.822Z,0.30
2022-10-03T00:18:50.574Z,0.20
2022-10-03T00:21:26.363Z,0.30
2022-10-03T00:24:11.428Z,0.30
2022-10-03T00:26:50.174Z,0.20
2022-10-03T00:29:38.663Z,0.40
2022-10-03T00:32:30.435Z,0.20
2022-10-03T00:35:03.245Z,0.20
2022-10-03T00:37:54.434Z,0.20
2022-10-03T00:40:56.562Z,0.30
2022-10-03T00:43:54.067Z,0.20
2022-10-03T00:46:32.771Z,0.20
2022-10-03T00:49:29.131Z,0.20
2022-10-03T00:52:29.832Z,0.20
2022-10-03T00:55:05.042Z,0.30
2022-10-03T00:57:54.636Z,0.20
2022-10-03T01:00:27.535Z,0.23
2022-10-03T01:03:16.152Z,0.30
2022-10-03T01:06:04.654Z,0.20
2022-10-03T01:08:40.234Z,0.20
2022-10-03T01:11:13.073Z,0.20
2022-10-03T01:13:54.561Z,0.20
2022-10-03T01:16:43.075Z,0.40
2022-10-03T01:19:24.906Z,0.20
2022-10-03T01:22:39.562Z,0.40
2022-10-03T01:25:19.637Z,0.33
2022-10-03T01:28:43.783Z,0.30
2022-10-03T01:31:12.638Z,0.40
2022-10-03T01:33:49.006Z,0.20
2022-10-03T01:36:40.114Z,0.93
2022-10-03T01:39:32.675Z,0.30
2022-10-03T01:42:04.491Z,0.30
2022-10-03T01:44:46.528Z,0.40
2022-10-03T01:47:28.434Z,0.30
2022-10-03T01:50:26.515Z,0.40
2022-10-03T01:53:22.472Z,0.20
2022-10-03T01:56:07.425Z,0.30
2022-10-03T01:58:56.910Z,0.20
2022-10-03T02:01:35.551Z,0.30
2022-10-03T02:04:04.441Z,0.20
2022-10-03T02:06:50.423Z,0.27
2022-10-03T02:09:17.024Z,0.33
2022-10-03T02:11:50.329Z,0.50
2022-10-03T02:14:35.252Z,0.40
2022-10-03T02:17:07.659Z,0.30
2022-10-03T02:19:34.271Z,0.43
2022-10-03T02:22:01.045Z,0.33
2022-10-03T02:24:36.534Z,0.30
2022-10-03T02:27:21.656Z,0.37
2022-10-03T02:30:05.292Z,0.30
2022-10-03T02:33:09.630Z,0.20
2022-10-03T02:36:00.971Z,0.30
2022-10-03T02:38:48.855Z,0.53
2022-10-03T02:41:34.433Z,0.30
2022-10-03T02:44:19.885Z,1.17
2022-10-03T02:46:49.252Z,0.47
2022-10-03T02:49:25.036Z,0.20
2022-10-03T02:51:54.874Z,0.37
2022-10-03T02:54:56.333Z,0.30
2022-10-03T02:58:00.924Z,0.30
2022-10-03T03:01:05.455Z,0.20
2022-10-03T03:03:47.326Z,0.30
2022-10-03T03:06:20.332Z,0.60
2022-10-03T03:09:27.294Z,0.93
2022-10-03T03:12:10.132Z,0.63
2022-10-03T03:14:55.142Z,0.60
2022-10-03T03:17:34.176Z,0.60
2022-10-03T03:20:23.322Z,0.57
2022-10-03T03:22:53.112Z,1.10
2022-10-03T03:25:45.014Z,0.40
2022-10-03T03:28:40.882Z,0.83
2022-10-03T03:31:17.114Z,1.07
2022-10-03T03:33:56.164Z,1.90
2022-10-03T03:36:25.954Z,0.93
2022-10-03T03:39:06.801Z,1.10
2022-10-03T03:41:47.301Z,0.93
2022-10-03T03:44:54.421Z,0.80
2022-10-03T03:47:54.642Z,1.60
2022-10-03T03:50:46.056Z,0.77
2022-10-03T03:53:27.675Z,0.70
2022-10-03T03:56:06.673Z,0.43
2022-10-03T03:58:39.275Z,1.00
2022-10-03T04:01:36.351Z,1.13
2022-10-03T04:04:35.382Z,1.13
2022-10-03T04:07:17.245Z,1.07
2022-10-03T04:09:59.834Z,1.00
2022-10-03T04:12:41.734Z,1.00
2022-10-03T04:15:18.532Z,1.40
2022-10-03T04:18:30.506Z,0.97
2022-10-03T04:21:07.858Z,1.03
2022-10-03T04:23:53.501Z,0.77
2022-10-03T04:26:34.708Z,1.37
2022-10-03T04:29:27.514Z,1.13
2022-10-03T04:32:23.300Z,1.63
2022-10-03T04:35:07.391Z,1.10
2022-10-03T04:37:44.661Z,1.30
2022-10-03T04:40:38.491Z,1.00
2022-10-03T04:43:10.488Z,0.97
2022-10-03T04:45:49.411Z,0.70
2022-10-03T04:48:22.679Z,1.30
2022-10-03T04:51:07.581Z,1.23
2022-10-03T04:53:42.420Z,1.77
2022-10-03T04:56:53.813Z,1.37
2022-10-03T04:59:41.214Z,1.10
2022-10-03T05:02:15.334Z,1.00
2022-10-03T05:05:11.073Z,1.47
2022-10-03T05:08:14.953Z,2.40
2022-10-03T05:11:19.041Z,1.43
2022-10-03T05:13:57.724Z,1.77
2022-10-03T05:16:32.233Z,1.27
2022-10-03T05:19:05.273Z,1.27
2022-10-03T05:21:45.654Z,1.20
2022-10-03T05:24:24.560Z,1.60
2022-10-03T05:27:11.247Z,1.60
2022-10-03T05:29:40.141Z,1.30
2022-10-03T05:32:25.557Z,1.37
2022-10-03T05:35:26.250Z,1.40
2022-10-03T05:37:58.844Z,1.33
2022-10-03T05:40:27.381Z,1.30
2022-10-03T05:43:19.113Z,1.37
2022-10-03T05:46:12.914Z,1.43
2022-10-03T05:48:55.994Z,1.37
2022-10-03T05:51:50.933Z,1.80
2022-10-03T05:55:12.589Z,1.70
2022-10-03T05:58:16.485Z,1.57
2022-10-03T06:01:01.983Z,1.70
2022-10-03T06:03:53.053Z,1.20
2022-10-03T06:07:04.798Z,1.37
2022-10-03T06:10:01.073Z,1.50
2022-10-03T06:12:39.154Z,0.87
2022-10-03T06:15:45.611Z,1.20
2022-10-03T06:18:32.414Z,1.97
2022-10-03T06:21:17.255Z,1.70
2022-10-03T06:24:17.549Z,1.20
2022-10-03T06:27:02.923Z,1.20
2022-10-03T06:29:44.993Z,1.40
2022-10-03T06:32:24.511Z,1.20
2022-10-03T06:35:06.472Z,1.00
2022-10-03T06:37:58.112Z,1.93
2022-10-03T06:40:49.894Z,1.17
2022-10-03T06:43:32.035Z,1.17
2022-10-03T06:46:10.803Z,1.10
2022-10-03T06:49:22.024Z,0.87
2022-10-03T06:51:59.798Z,1.30
2022-10-03T06:54:51.577Z,1.70
2022-10-03T06:57:30.491Z,1.50
2022-10-03T07:00:20.055Z,1.17
2022-10-03T07:03:08.156Z,1.13
2022-10-03T07:06:09.343Z,1.13
2022-10-03T07:09:09.953Z,1.17
2022-10-03T07:12:01.527Z,0.90
2022-10-03T07:14:39.318Z,1.10
2022-10-03T07:17:08.734Z,1.40
2022-10-03T07:20:06.575Z,0.70
2022-10-03T07:23:17.954Z,0.53
2022-10-03T07:26:19.882Z,1.13
2022-10-03T07:29:03.345Z,3.20
2022-10-03T07:31:52.971Z,1.13
2022-10-03T07:34:57.154Z,1.40
2022-10-03T07:38:17.695Z,0.90
2022-10-03T07:41:15.603Z,1.90
2022-10-03T07:44:00.475Z,7.30
2022-10-03T07:46:35.475Z,14.30
2022-10-03T07:49:20.468Z,7.40
2022-10-03T07:52:24.653Z,1.67
2022-10-03T07:55:15.107Z,2.00
2022-10-03T07:58:13.213Z,1.97
2022-10-03T08:00:59.983Z,2.07
2022-10-03T08:03:42.041Z,1.90
2022-10-03T08:06:28.969Z,1.50
2022-10-03T08:08:58.311Z,2.40
2022-10-03T08:11:50.499Z,1.50
2022-10-03T08:14:26.526Z,1.07
2022-10-03T08:17:14.894Z,1.77
2022-10-03T08:20:17.105Z,1.13
2022-10-03T08:22:47.905Z,0.80
2022-10-03T08:25:33.846Z,0.97
2022-10-03T08:28:15.639Z,1.07
2022-10-03T08:30:42.299Z,0.97
2022-10-03T08:33:32.073Z,0.60
2022-10-03T08:36:29.785Z,0.80
2022-10-03T08:39:30.321Z,1.10
2022-10-03T08:42:35.146Z,0.87
2022-10-03T08:45:26.905Z,1.10
2022-10-03T08:47:53.573Z,0.60
2022-10-03T08:50:23.023Z,1.10
2022-10-03T08:53:11.154Z,1.20
2022-10-03T08:55:56.173Z,0.50
2022-10-03T08:58:31.983Z,0.73
2022-10-03T09:01:23.640Z,0.90
2022-10-03T09:03:59.613Z,0.73
2022-10-03T09:07:16.664Z,0.97
2022-10-03T09:09:44.414Z,1.30
2022-10-03T09:12:31.857Z,1.03
2022-10-03T09:15:26.755Z,1.13
2022-10-03T09:18:05.484Z,1.27
2022-10-03T09:20:47.403Z,1.23
2022-10-03T09:23:30.154Z,0.70
2022-10-03T09:26:12.523Z,0.67
2022-10-03T09:29:02.693Z,1.00
2022-10-03T09:31:44.103Z,1.27
2022-10-03T09:34:42.210Z,0.80
2022-10-03T09:37:22.863Z,0.97
2022-10-03T09:39:55.428Z,0.60
2022-10-03T09:42:50.128Z,0.77
2022-10-03T09:45:46.428Z,1.20
2022-10-03T09:48:39.828Z,0.63
2022-10-03T09:51:21.953Z,1.90
2022-10-03T09:54:28.375Z,0.70
2022-10-03T09:57:04.207Z,1.03
2022-10-03T09:59:57.358Z,1.33
2022-10-03T10:02:42.738Z,1.00
2022-10-03T10:05:44.714Z,1.00
2022-10-03T10:08:21.069Z,1.20
2022-10-03T10:11:06.469Z,0.77
2022-10-03T10:14:10.318Z,1.37
2022-10-03T10:16:55.313Z,1.00
2022-10-03T10:19:53.629Z,1.40
2022-10-03T10:22:47.081Z,0.87
2022-10-03T10:25:38.560Z,0.60
2022-10-03T10:28:30.090Z,0.87
2022-10-03T10:31:09.245Z,0.60
2022-10-03T10:33:54.768Z,0.70
2022-10-03T10:36:47.379Z,0.60
2022-10-03T10:39:46.080Z,0.70
2022-10-03T10:42:44.136Z,0.90
2022-10-03T10:45:48.848Z,1.30
2022-10-03T10:49:02.850Z,2.80
2022-10-03T10:52:01.529Z,1.53
2022-10-03T10:54:49.157Z,2.20
2022-10-03T10:57:26.838Z,1.20
2022-10-03T11:00:31.678Z,1.33
2022-10-03T11:03:37.557Z,1.17
2022-10-03T11:06:23.168Z,1.10
2022-10-03T11:09:10.868Z,1.00
2022-10-03T11:12:26.095Z,1.00
2022-10-03T11:15:26.876Z,1.00
2022-10-03T11:18:27.572Z,0.90
2022-10-03T11:20:55.379Z,1.33
2022-10-03T11:23:59.138Z,0.77
2022-10-03T11:26:38.309Z,1.10
2022-10-03T11:29:40.008Z,1.10
2022-10-03T11:32:44.188Z,0.90
2022-10-03T11:35:22.808Z,1.30
2022-10-03T11:38:32.888Z,0.90
2022-10-03T11:41:18.280Z,1.40
2022-10-03T11:44:09.617Z,0.80
2022-10-03T11:47:14.658Z,1.37
2022-10-03T11:50:01.130Z,0.83
2022-10-03T11:52:29.209Z,0.83
2022-10-03T11:55:34.478Z,2.10
2022-10-03T11:58:01.119Z,1.00
2022-10-03T12:00:33.888Z,1.50
2022-10-03T12:03:37.418Z,1.50
2022-10-03T12:06:29.828Z,1.50
2022-10-03T12:09:20.690Z,1.50
2022-10-03T12:11:56.519Z,1.20
2022-10-03T12:14:25.222Z,1.27
2022-10-03T12:17:02.768Z,1.03
2022-10-03T12:20:07.198Z,0.83
2022-10-03T12:22:42.810Z,0.90
2022-10-03T12:25:30.459Z,1.13
2022-10-03T12:28:21.135Z,1.10
2022-10-03T12:30:52.139Z,1.03
2022-10-03T12:33:40.458Z,1.90
2022-10-03T12:36:13.947Z,1.13
2022-10-03T12:38:58.838Z,1.23
2022-10-03T12:41:56.421Z,1.20
2022-10-03T12:44:29.899Z,0.90
2022-10-03T12:47:54.831Z,0.70
2022-10-03T12:50:57.766Z,2.00
2022-10-03T12:53:30.358Z,1.00
2022-10-03T12:56:08.328Z,1.70
2022-10-03T12:59:33.871Z,0.87
2022-10-03T13:02:12.522Z,1.60
2022-10-03T13:05:10.688Z,1.23
2022-10-03T13:08:01.798Z,1.20
2022-10-03T13:10:37.562Z,1.10
2022-10-03T13:13:19.288Z,1.10
2022-10-03T13:16:09.045Z,1.30
2022-10-03T13:18:57.509Z,1.17
2022-10-03T13:21:54.500Z,1.90
2022-10-03T13:24:23.969Z,1.83
2022-10-03T13:27:32.453Z,1.63
2022-10-03T13:30:29.187Z,1.13
2022-10-03T13:33:17.478Z,2.00
2022-10-03T13:35:59.310Z,1.27
2022-10-03T13:38:51.389Z,1.00
2022-10-03T13:41:30.808Z,1.27
2022-10-03T13:44:10.148Z,0.90
2022-10-03T13:47:03.698Z,1.50
2022-10-03T13:49:34.403Z,1.13
2022-10-03T13:52:35.725Z,0.87
2022-10-03T13:55:28.987Z,1.73
2022-10-03T13:58:00.095Z,1.10
2022-10-03T14:00:31.769Z,1.40
2022-10-03T14:03:19.748Z,1.30
2022-10-03T14:06:11.038Z,1.67
2022-10-03T14:08:59.478Z,1.23
2022-10-03T14:11:48.038Z,0.97
2022-10-03T14:14:43.288Z,0.97
2022-10-03T14:17:38.618Z,0.80
2022-10-03T14:20:12.967Z,2.00
2022-10-03T14:22:59.888Z,1.00
2022-10-03T14:25:29.470Z,1.60
2022-10-03T14:28:11.262Z,1.80
2022-10-03T14:31:04.654Z,1.40
2022-10-03T14:33:39.062Z,1.37
2022-10-03T14:36:33.499Z,1.70
2022-10-03T14:39:12.860Z,1.33
2022-10-03T14:41:56.738Z,2.97
2022-10-03T14:44:45.668Z,2.10
2022-10-03T14:47:18.637Z,2.07
2022-10-03T14:49:59.461Z,1.40
2022-10-03T14:52:38.200Z,1.40
2022-10-03T14:55:27.572Z,2.67
2022-10-03T14:58:11.064Z,1.60
2022-10-03T15:00:45.388Z,1.47
2022-10-03T15:03:17.926Z,1.23
2022-10-03T15:05:56.859Z,1.13
2022-10-03T15:08:25.029Z,1.40
2022-10-03T15:10:53.768Z,1.53
2022-10-03T15:13:21.768Z,1.80
2022-10-03T15:15:49.089Z,2.40
2022-10-03T15:18:19.427Z,1.47
2022-10-03T15:20:47.299Z,1.10
2022-10-03T15:23:22.099Z,1.43
2022-10-03T15:25:53.250Z,1.10
2022-10-03T15:28:49.010Z,1.20
2022-10-03T15:31:43.561Z,1.33
2022-10-03T15:34:25.518Z,1.30
2022-10-03T15:36:59.037Z,1.23
2022-10-03T15:39:30.059Z,1.83
2022-10-03T15:42:07.888Z,1.67
2022-10-03T15:44:40.427Z,1.40
2022-10-03T15:47:15.627Z,2.20
2022-10-03T15:50:22.458Z,1.40
2022-10-03T15:53:08.172Z,1.73
2022-10-03T15:55:49.983Z,2.43
2022-10-03T15:58:33.137Z,1.10
2022-10-03T16:01:08.680Z,1.30
2022-10-03T16:03:48.387Z,1.33
2022-10-03T16:06:21.839Z,1.80
2022-10-03T16:09:19.747Z,1.97
2022-10-03T16:12:09.408Z,1.90
2022-10-03T16:15:17.354Z,1.60
2022-10-03T16:17:53.365Z,2.43
2022-10-03T16:20:28.319Z,2.27
2022-10-03T16:22:57.478Z,1.87
2022-10-03T16:25:56.601Z,1.50
2022-10-03T16:28:39.563Z,1.20
2022-10-03T16:31:13.438Z,1.30
2022-10-03T16:33:53.536Z,1.67
2022-10-03T16:36:25.268Z,1.40
2022-10-03T16:38:55.937Z,1.53
2022-10-03T16:41:26.901Z,1.67
2022-10-03T16:43:59.647Z,1.70
2022-10-03T16:46:33.847Z,1.80
2022-10-03T16:49:29.356Z,1.90
2022-10-03T16:52:06.257Z,1.37
2022-10-03T16:54:33.792Z,1.50
2022-10-03T16:57:05.142Z,1.30
2022-10-03T16:59:32.788Z,1.30
2022-10-03T17:02:05.132Z,1.80
2022-10-03T17:04:40.047Z,1.20
2022-10-03T17:07:14.558Z,2.00
2022-10-03T17:09:51.564Z,1.20
2022-10-03T17:12:24.305Z,1.40
2022-10-03T17:14:53.479Z,1.30
2022-10-03T17:17:45.182Z,2.00
2022-10-03T17:20:29.547Z,1.63
2022-10-03T17:23:00.859Z,1.57
2022-10-03T17:25:55.698Z,1.43
2022-10-03T17:28:36.893Z,1.63
2022-10-03T17:31:17.967Z,2.20
2022-10-03T17:33:48.578Z,2.53
2022-10-03T17:36:27.288Z,1.90
2022-10-03T17:39:02.309Z,1.90
2022-10-03T17:41:52.659Z,1.63
2022-10-03T17:44:29.616Z,2.23
2022-10-03T17:47:19.248Z,2.13
2022-10-03T17:50:02.271Z,1.80
2022-10-03T17:52:29.768Z,1.50
2022-10-03T17:55:02.221Z,1.13
2022-10-03T17:57:34.798Z,1.50
2022-10-03T18:00:20.417Z,1.50
2022-10-03T18:03:05.633Z,1.33
2022-10-03T18:05:52.387Z,1.20
2022-10-03T18:08:24.314Z,1.80
2022-10-03T18:10:52.486Z,1.30
2022-10-03T18:13:31.066Z,1.57
2022-10-03T18:16:23.055Z,2.13
2022-10-03T18:18:56.716Z,1.70
2022-10-03T18:21:34.049Z,2.27
2022-10-03T18:24:20.955Z,2.20
2022-10-03T18:27:30.577Z,1.97
2022-10-03T18:30:05.682Z,2.47
2022-10-03T18:32:36.907Z,1.43
2022-10-03T18:35:11.376Z,1.60
2022-10-03T18:37:41.086Z,1.50
2022-10-03T18:40:18.779Z,2.27
2022-10-03T18:42:50.442Z,2.90
2022-10-03T18:45:43.882Z,2.57
2022-10-03T18:48:22.331Z,2.03
2022-10-03T18:51:05.627Z,1.83
2022-10-03T18:53:35.891Z,1.80
2022-10-03T18:56:06.870Z,2.07
2022-10-03T18:58:36.972Z,1.43
2022-10-03T19:01:41.067Z,1.90
2022-10-03T19:04:20.658Z,2.20
2022-10-03T19:06:52.262Z,1.53
2022-10-03T19:09:25.326Z,1.97
2022-10-03T19:12:06.141Z,1.70
2022-10-03T19:14:44.970Z,2.40
2022-10-03T19:17:17.895Z,1.57
2022-10-03T19:19:44.977Z,2.20
2022-10-03T19:22:14.076Z,1.50
2022-10-03T19:24:57.919Z,1.73
2022-10-03T19:27:40.588Z,1.83
2022-10-03T19:30:08.616Z,2.13
2022-10-03T19:32:41.188Z,1.83
2022-10-03T19:35:11.843Z,2.03
2022-10-03T19:37:45.716Z,1.47
2022-10-03T19:40:36.255Z,2.10
2022-10-03T19:43:17.182Z,1.67
2022-10-03T19:45:54.133Z,1.97
2022-10-03T19:48:22.297Z,1.83
2022-10-03T19:50:48.904Z,1.90
2022-10-03T19:53:17.866Z,2.33
2022-10-03T19:55:46.153Z,1.63
2022-10-03T19:58:24.172Z,2.00
2022-10-03T20:00:54.055Z,2.27
2022-10-03T20:03:54.453Z,1.97
2022-10-03T20:06:28.928Z,1.40
2022-10-03T20:09:01.467Z,2.03
2022-10-03T20:11:39.756Z,1.43
2022-10-03T20:14:07.436Z,1.70
2022-10-03T20:16:41.692Z,2.10
2022-10-03T20:19:20.892Z,1.87
2022-10-03T20:22:05.808Z,1.70
2022-10-03T20:24:35.776Z,2.00
2022-10-03T20:27:05.246Z,2.13
2022-10-03T20:29:37.390Z,2.07
2022-10-03T20:32:04.842Z,2.37
2022-10-03T20:34:34.673Z,2.13
2022-10-03T20:37:17.535Z,2.47
2022-10-03T20:39:45.594Z,2.00
2022-10-03T20:42:26.098Z,2.00
2022-10-03T20:45:02.068Z,2.40
2022-10-03T20:47:37.653Z,1.87
2022-10-03T20:50:27.997Z,1.50
2022-10-03T20:52:58.838Z,2.90
2022-10-03T20:55:29.747Z,1.40
2022-10-03T20:58:04.957Z,2.00
2022-10-03T21:00:31.745Z,1.80
2022-10-03T21:03:07.689Z,2.20
2022-10-03T21:05:35.978Z,1.90
2022-10-03T21:08:20.778Z,1.97
2022-10-03T21:11:00.287Z,2.37
2022-10-03T21:13:51.161Z,1.93
2022-10-03T21:16:22.255Z,1.33
2022-10-03T21:18:50.382Z,3.03
2022-10-03T21:21:19.571Z,1.80
2022-10-03T21:24:02.104Z,1.90
2022-10-03T21:26:37.759Z,2.00
2022-10-03T21:29:28.846Z,1.80
2022-10-03T21:32:25.774Z,1.73
2022-10-03T21:35:01.410Z,2.23
2022-10-03T21:37:57.967Z,2.23
2022-10-03T21:40:32.204Z,2.13
2022-10-03T21:43:12.485Z,2.10
2022-10-03T21:46:18.842Z,1.93
2022-10-03T21:49:00.386Z,2.30
2022-10-03T21:51:31.860Z,2.50
2022-10-03T21:54:35.938Z,2.00
2022-10-03T21:57:14.688Z,2.03
2022-10-03T22:00:10.915Z,2.00
2022-10-03T22:03:03.446Z,2.10
2022-10-03T22:05:45.794Z,2.00
2022-10-03T22:08:21.036Z,1.33
2022-10-03T22:10:56.199Z,2.17
2022-10-03T22:13:24.561Z,1.80
2022-10-03T22:16:08.470Z,2.20
2022-10-03T22:18:56.224Z,2.30
2022-10-03T22:21:26.229Z,1.60
2022-10-03T22:24:09.937Z,1.70
2022-10-03T22:27:01.055Z,2.27
2022-10-03T22:30:03.915Z,2.30
2022-10-03T22:32:38.445Z,1.43
2022-10-03T22:35:23.283Z,2.27
2022-10-03T22:37:50.337Z,1.13
2022-10-03T22:40:17.413Z,1.80
2022-10-03T22:42:46.688Z,1.37
2022-10-03T22:45:14.688Z,2.47
2022-10-03T22:47:42.357Z,2.00
2022-10-03T22:50:12.021Z,1.97
2022-10-03T22:52:41.261Z,1.97
2022-10-03T22:55:12.217Z,1.57
2022-10-03T22:57:41.718Z,2.10
2022-10-03T23:00:13.822Z,2.27
2022-10-03T23:03:06.511Z,1.87
2022-10-03T23:05:50.669Z,2.50
2022-10-03T23:08:26.571Z,1.87
2022-10-03T23:11:06.856Z,2.17
2022-10-03T23:13:44.105Z,2.50
2022-10-03T23:17:05.740Z,1.77
2022-10-03T23:20:06.413Z,1.73
2022-10-03T23:22:35.688Z,1.53
2022-10-03T23:25:07.398Z,2.23
2022-10-03T23:27:49.109Z,1.93
2022-10-03T23:30:15.684Z,2.17
2022-10-03T23:32:48.165Z,3.00
2022-10-03T23:35:43.177Z,1.90
2022-10-03T23:38:31.872Z,1.97
2022-10-03T23:41:02.086Z,1.83
2022-10-03T23:43:51.569Z,1.90
2022-10-03T23:46:23.961Z,1.97
2022-10-03T23:48:54.417Z,2.40
2022-10-03T23:51:28.396Z,2.60
2022-10-03T23:54:02.619Z,1.93
2022-10-03T23:56:41.711Z,2.00
2022-10-03T23:59:10.186Z,2.43
